Kowloon Bay — D5EZ6 — position and weather

sailwx.info

Track history (hours):
 
Tides and Currents Weather Stations Pressure Air Temp Water Temp Dewpoint Dewpoint Depression Visibility Wind Speed Wind Dir Waves Ship Positions

Kowloon Bay

Last reported at 2017-Dec-18 06:48 UTC. Time now 2017-Dec-18 07:09 UTC.
Position N 36°01' E 120°13'.

Length 293 m; draft 8.1 m.

Type: Cargo ship. MMSI: 636016204.

Date/timePositionNaut miles runAvg speedWind from/ knotsBaromVisibWave heightAir tempDewpointWater temp
2017-Dec-18 06:48N 36°01' E 120°13'0 0.0
2017-Dec-18 06:29N 36°01' E 120°13'0 0.0
2017-Dec-18 05:50N 36°01' E 120°13'0 0.0
2017-Dec-18 04:40N 36°01' E 120°13'0 0.0
2017-Dec-18 04:20N 36°01' E 120°13'0 0.0
2017-Dec-18 03:50N 36°01' E 120°13'0 0.0
2017-Dec-18 03:15N 36°01' E 120°13'0 0.0
2017-Dec-18 02:56N 36°01' E 120°13'0 0.0
2017-Dec-18 01:59N 36°01' E 120°13'1 1.9
2017-Dec-18 01:29N 36°01' E 120°14'5 9.2
2017-Dec-18 00:58N 36°02' E 120°20'4 8.3
2017-Dec-18 00:28N 36°01' E 120°25'4 7.2
2017-Dec-17 23:57N 36°00' E 120°29'4 7.9
2017-Dec-17 23:29N 35°59' E 120°34'  
Track history (hours):
 
Tides and Currents Weather Stations Pressure Air Temp Water Temp Dewpoint Dewpoint Depression Visibility Wind Speed Wind Dir Waves Ship Positions

Kowloon Bay

Last reported at 2017-Dec-18 06:48 UTC. Time now 2017-Dec-18 07:09 UTC.
Position N 36°01' E 120°13'.

Length 293 m; draft 8.1 m.

Type: Cargo ship. MMSI: 636016204.

Date/timePositionNaut miles runAvg speedWind from/ knotsBaromVisibWave heightAir tempDewpointWater temp
2017-Dec-18 06:48N 36°01' E 120°13'0 0.0
2017-Dec-18 06:29N 36°01' E 120°13'0 0.0
2017-Dec-18 05:50N 36°01' E 120°13'0 0.0
2017-Dec-18 04:40N 36°01' E 120°13'0 0.0
2017-Dec-18 04:20N 36°01' E 120°13'0 0.0
2017-Dec-18 03:50N 36°01' E 120°13'0 0.0
2017-Dec-18 03:15N 36°01' E 120°13'0 0.0
2017-Dec-18 02:56N 36°01' E 120°13'0 0.0
2017-Dec-18 01:59N 36°01' E 120°13'1 1.9
2017-Dec-18 01:29N 36°01' E 120°14'5 9.2
2017-Dec-18 00:58N 36°02' E 120°20'4 8.3
2017-Dec-18 00:28N 36°01' E 120°25'4 7.2
2017-Dec-17 23:57N 36°00' E 120°29'4 7.9
2017-Dec-17 23:29N 35°59' E 120°34'  

Dump ship's entire track history